sensor_id;sensor_type;location;lat;lon;timestamp;temperature;humidity
18361;SHT31;9308;48.550;9.108;2023-05-10T00:00:25;15.52;81.02
18361;SHT31;9308;48.550;9.108;2023-05-10T00:02:50;15.52;81.50
18361;SHT31;9308;48.550;9.108;2023-05-10T00:05:16;15.50;81.27
18361;SHT31;9308;48.550;9.108;2023-05-10T00:07:41;15.65;81.04
18361;SHT31;9308;48.550;9.108;2023-05-10T00:10:10;15.61;80.71
18361;SHT31;9308;48.550;9.108;2023-05-10T00:12:35;15.40;81.32
18361;SHT31;9308;48.550;9.108;2023-05-10T00:15:01;15.41;81.22
18361;SHT31;9308;48.550;9.108;2023-05-10T00:17:26;15.47;81.57
18361;SHT31;9308;48.550;9.108;2023-05-10T00:19:52;15.38;81.56
18361;SHT31;9308;48.550;9.108;2023-05-10T00:22:17;15.42;81.59
18361;SHT31;9308;48.550;9.108;2023-05-10T00:24:43;15.40;81.50
18361;SHT31;9308;48.550;9.108;2023-05-10T00:27:08;15.40;81.54
18361;SHT31;9308;48.550;9.108;2023-05-10T00:29:34;15.23;81.55
18361;SHT31;9308;48.550;9.108;2023-05-10T00:31:59;14.85;82.51
18361;SHT31;9308;48.550;9.108;2023-05-10T00:34:24;14.79;82.10
18361;SHT31;9308;48.550;9.108;2023-05-10T00:36:50;14.82;81.91
18361;SHT31;9308;48.550;9.108;2023-05-10T00:39:16;14.80;81.81
18361;SHT31;9308;48.550;9.108;2023-05-10T00:41:41;14.76;81.86
18361;SHT31;9308;48.550;9.108;2023-05-10T00:44:06;14.93;81.21
18361;SHT31;9308;48.550;9.108;2023-05-10T00:46:32;14.85;81.59
18361;SHT31;9308;48.550;9.108;2023-05-10T00:48:58;14.87;80.98
18361;SHT31;9308;48.550;9.108;2023-05-10T00:51:24;14.72;81.23
18361;SHT31;9308;48.550;9.108;2023-05-10T00:53:50;14.72;81.74
18361;SHT31;9308;48.550;9.108;2023-05-10T00:56:16;14.85;81.60
18361;SHT31;9308;48.550;9.108;2023-05-10T00:58:42;14.97;80.90
18361;SHT31;9308;48.550;9.108;2023-05-10T01:01:08;15.08;80.93
18361;SHT31;9308;48.550;9.108;2023-05-10T01:03:34;15.13;80.09
18361;SHT31;9308;48.550;9.108;2023-05-10T01:06:00;15.18;80.34
18361;SHT31;9308;48.550;9.108;2023-05-10T01:08:26;15.34;80.33
18361;SHT31;9308;48.550;9.108;2023-05-10T01:10:51;15.11;80.46
18361;SHT31;9308;48.550;9.108;2023-05-10T01:13:28;15.26;80.29
18361;SHT31;9308;48.550;9.108;2023-05-10T01:15:55;15.18;80.45
18361;SHT31;9308;48.550;9.108;2023-05-10T01:18:21;15.02;81.15
18361;SHT31;9308;48.550;9.108;2023-05-10T01:20:49;15.06;80.80
18361;SHT31;9308;48.550;9.108;2023-05-10T01:23:38;15.17;80.82
18361;SHT31;9308;48.550;9.108;2023-05-10T01:29:11;15.02;80.98
18361;SHT31;9308;48.550;9.108;2023-05-10T01:34:38;14.90;80.36
18361;SHT31;9308;48.550;9.108;2023-05-10T01:37:10;14.82;80.32
18361;SHT31;9308;48.550;9.108;2023-05-10T01:39:45;14.89;80.34
18361;SHT31;9308;48.550;9.108;2023-05-10T01:42:25;14.69;80.59
18361;SHT31;9308;48.550;9.108;2023-05-10T01:44:59;14.77;80.24
18361;SHT31;9308;48.550;9.108;2023-05-10T01:50:01;14.49;80.34
18361;SHT31;9308;48.550;9.108;2023-05-10T01:52:33;14.68;80.40
18361;SHT31;9308;48.550;9.108;2023-05-10T01:55:05;14.71;80.08
18361;SHT31;9308;48.550;9.108;2023-05-10T01:57:39;14.75;79.72
18361;SHT31;9308;48.550;9.108;2023-05-10T02:00:06;14.97;80.21
18361;SHT31;9308;48.550;9.108;2023-05-10T02:02:37;14.96;79.80
18361;SHT31;9308;48.550;9.108;2023-05-10T02:05:05;14.89;79.92
18361;SHT31;9308;48.550;9.108;2023-05-10T02:07:34;14.85;79.76
18361;SHT31;9308;48.550;9.108;2023-05-10T02:10:02;14.92;79.88
18361;SHT31;9308;48.550;9.108;2023-05-10T02:12:28;14.85;79.31
18361;SHT31;9308;48.550;9.108;2023-05-10T02:14:55;14.75;79.18
18361;SHT31;9308;48.550;9.108;2023-05-10T02:17:22;14.85;79.60
18361;SHT31;9308;48.550;9.108;2023-05-10T02:19:51;14.69;79.68
18361;SHT31;9308;48.550;9.108;2023-05-10T02:22:18;14.57;79.35
18361;SHT31;9308;48.550;9.108;2023-05-10T02:24:44;14.54;80.02
18361;SHT31;9308;48.550;9.108;2023-05-10T02:27:11;14.72;79.81
18361;SHT31;9308;48.550;9.108;2023-05-10T02:29:38;14.27;79.80
18361;SHT31;9308;48.550;9.108;2023-05-10T02:32:04;14.25;80.84
18361;SHT31;9308;48.550;9.108;2023-05-10T02:34:30;14.25;80.34
18361;SHT31;9308;48.550;9.108;2023-05-10T02:36:56;14.44;80.73
18361;SHT31;9308;48.550;9.108;2023-05-10T02:39:23;14.57;80.13
18361;SHT31;9308;48.550;9.108;2023-05-10T02:41:50;14.55;79.85
18361;SHT31;9308;48.550;9.108;2023-05-10T02:44:20;14.42;80.13
18361;SHT31;9308;48.550;9.108;2023-05-10T02:46:46;14.44;79.59
18361;SHT31;9308;48.550;9.108;2023-05-10T02:49:13;14.24;79.98
18361;SHT31;9308;48.550;9.108;2023-05-10T02:51:44;14.04;80.25
18361;SHT31;9308;48.550;9.108;2023-05-10T02:54:18;13.97;80.75
18361;SHT31;9308;48.550;9.108;2023-05-10T02:56:47;13.96;81.19
18361;SHT31;9308;48.550;9.108;2023-05-10T02:59:14;13.96;80.76
18361;SHT31;9308;48.550;9.108;2023-05-10T03:01:39;14.00;80.78
18361;SHT31;9308;48.550;9.108;2023-05-10T03:04:05;13.93;80.99
18361;SHT31;9308;48.550;9.108;2023-05-10T03:06:31;13.87;81.12
18361;SHT31;9308;48.550;9.108;2023-05-10T03:08:57;13.75;81.29
18361;SHT31;9308;48.550;9.108;2023-05-10T03:11:25;13.76;81.16
18361;SHT31;9308;48.550;9.108;2023-05-10T03:14:10;13.75;81.44
18361;SHT31;9308;48.550;9.108;2023-05-10T03:16:44;13.90;81.03
18361;SHT31;9308;48.550;9.108;2023-05-10T03:19:17;14.09;80.73
18361;SHT31;9308;48.550;9.108;2023-05-10T03:21:47;13.94;80.25
18361;SHT31;9308;48.550;9.108;2023-05-10T03:24:15;13.89;81.45
18361;SHT31;9308;48.550;9.108;2023-05-10T03:26:43;13.76;81.54
18361;SHT31;9308;48.550;9.108;2023-05-10T03:29:10;13.93;81.06
18361;SHT31;9308;48.550;9.108;2023-05-10T03:31:38;14.03;80.59
18361;SHT31;9308;48.550;9.108;2023-05-10T03:34:03;14.22;80.17
18361;SHT31;9308;48.550;9.108;2023-05-10T03:36:29;14.06;81.07
18361;SHT31;9308;48.550;9.108;2023-05-10T03:38:54;14.03;80.63
18361;SHT31;9308;48.550;9.108;2023-05-10T03:41:20;14.11;80.69
18361;SHT31;9308;48.550;9.108;2023-05-10T03:43:45;14.01;81.00
18361;SHT31;9308;48.550;9.108;2023-05-10T03:46:11;13.99;81.23
18361;SHT31;9308;48.550;9.108;2023-05-10T03:48:37;14.14;80.85
18361;SHT31;9308;48.550;9.108;2023-05-10T03:51:03;14.16;80.62
18361;SHT31;9308;48.550;9.108;2023-05-10T03:53:28;14.22;81.09
18361;SHT31;9308;48.550;9.108;2023-05-10T03:55:54;14.37;80.25
18361;SHT31;9308;48.550;9.108;2023-05-10T03:58:19;14.59;79.45
18361;SHT31;9308;48.550;9.108;2023-05-10T04:00:45;14.28;80.49
18361;SHT31;9308;48.550;9.108;2023-05-10T04:03:11;14.45;80.09
18361;SHT31;9308;48.550;9.108;2023-05-10T04:05:37;14.42;80.14
18361;SHT31;9308;48.550;9.108;2023-05-10T04:08:03;14.58;79.42
18361;SHT31;9308;48.550;9.108;2023-05-10T04:10:29;14.66;79.67
18361;SHT31;9308;48.550;9.108;2023-05-10T04:12:54;14.64;79.11
18361;SHT31;9308;48.550;9.108;2023-05-10T04:15:20;14.45;79.76
18361;SHT31;9308;48.550;9.108;2023-05-10T04:17:46;14.54;79.71
18361;SHT31;9308;48.550;9.108;2023-05-10T04:20:12;14.61;79.34
18361;SHT31;9308;48.550;9.108;2023-05-10T04:22:38;14.65;79.49
18361;SHT31;9308;48.550;9.108;2023-05-10T04:25:04;14.61;78.93
18361;SHT31;9308;48.550;9.108;2023-05-10T04:27:30;14.76;79.31
18361;SHT31;9308;48.550;9.108;2023-05-10T04:29:56;14.85;79.17
18361;SHT31;9308;48.550;9.108;2023-05-10T04:32:21;14.47;79.94
18361;SHT31;9308;48.550;9.108;2023-05-10T04:34:47;14.83;79.40
18361;SHT31;9308;48.550;9.108;2023-05-10T04:37:12;14.86;79.14
18361;SHT31;9308;48.550;9.108;2023-05-10T04:39:38;14.73;79.32
18361;SHT31;9308;48.550;9.108;2023-05-10T04:42:03;14.76;79.93
18361;SHT31;9308;48.550;9.108;2023-05-10T04:44:31;14.87;79.37
18361;SHT31;9308;48.550;9.108;2023-05-10T04:46:57;15.04;78.57
18361;SHT31;9308;48.550;9.108;2023-05-10T04:49:22;14.87;78.79
18361;SHT31;9308;48.550;9.108;2023-05-10T04:51:48;14.92;79.54
18361;SHT31;9308;48.550;9.108;2023-05-10T04:54:13;14.90;79.12
18361;SHT31;9308;48.550;9.108;2023-05-10T04:56:38;14.95;79.07
18361;SHT31;9308;48.550;9.108;2023-05-10T04:59:04;14.97;78.94
18361;SHT31;9308;48.550;9.108;2023-05-10T05:01:29;14.79;79.00
18361;SHT31;9308;48.550;9.108;2023-05-10T05:03:55;14.52;79.66
18361;SHT31;9308;48.550;9.108;2023-05-10T05:06:21;14.66;79.50
18361;SHT31;9308;48.550;9.108;2023-05-10T05:08:46;14.69;79.62
18361;SHT31;9308;48.550;9.108;2023-05-10T05:11:12;14.68;79.09
18361;SHT31;9308;48.550;9.108;2023-05-10T05:13:37;14.71;78.89
18361;SHT31;9308;48.550;9.108;2023-05-10T05:16:03;14.89;79.01
18361;SHT31;9308;48.550;9.108;2023-05-10T05:18:28;14.82;79.19
18361;SHT31;9308;48.550;9.108;2023-05-10T05:20:54;14.76;79.07
18361;SHT31;9308;48.550;9.108;2023-05-10T05:23:19;14.75;78.76
18361;SHT31;9308;48.550;9.108;2023-05-10T05:25:46;14.76;78.53
18361;SHT31;9308;48.550;9.108;2023-05-10T05:28:12;14.85;78.79
18361;SHT31;9308;48.550;9.108;2023-05-10T05:30:37;15.06;78.68
18361;SHT31;9308;48.550;9.108;2023-05-10T05:33:03;14.99;79.15
18361;SHT31;9308;48.550;9.108;2023-05-10T05:35:29;15.02;78.71
18361;SHT31;9308;48.550;9.108;2023-05-10T05:37:54;14.92;78.46
18361;SHT31;9308;48.550;9.108;2023-05-10T05:40:21;14.96;78.49
18361;SHT31;9308;48.550;9.108;2023-05-10T05:42:46;14.75;79.35
18361;SHT31;9308;48.550;9.108;2023-05-10T05:45:11;14.77;79.49
18361;SHT31;9308;48.550;9.108;2023-05-10T05:47:40;14.73;78.68
18361;SHT31;9308;48.550;9.108;2023-05-10T05:50:05;14.42;80.15
18361;SHT31;9308;48.550;9.108;2023-05-10T05:52:31;14.45;80.26
18361;SHT31;9308;48.550;9.108;2023-05-10T05:54:56;14.71;79.75
18361;SHT31;9308;48.550;9.108;2023-05-10T05:57:22;14.76;80.12
18361;SHT31;9308;48.550;9.108;2023-05-10T05:59:48;14.82;79.93
18361;SHT31;9308;48.550;9.108;2023-05-10T06:02:13;15.17;78.58
18361;SHT31;9308;48.550;9.108;2023-05-10T06:04:39;15.13;78.56
18361;SHT31;9308;48.550;9.108;2023-05-10T06:07:04;15.24;79.02
18361;SHT31;9308;48.550;9.108;2023-05-10T06:09:29;15.40;78.54
18361;SHT31;9308;48.550;9.108;2023-05-10T06:11:55;15.27;78.56
18361;SHT31;9308;48.550;9.108;2023-05-10T06:14:20;15.42;78.06
18361;SHT31;9308;48.550;9.108;2023-05-10T06:16:46;15.41;78.45
18361;SHT31;9308;48.550;9.108;2023-05-10T06:19:12;15.41;78.74
18361;SHT31;9308;48.550;9.108;2023-05-10T06:21:37;15.52;78.09
18361;SHT31;9308;48.550;9.108;2023-05-10T06:24:03;15.76;77.65
18361;SHT31;9308;48.550;9.108;2023-05-10T06:26:29;15.79;76.43
18361;SHT31;9308;48.550;9.108;2023-05-10T06:28:54;15.76;76.70
18361;SHT31;9308;48.550;9.108;2023-05-10T06:31:20;15.89;76.92
18361;SHT31;9308;48.550;9.108;2023-05-10T06:33:46;15.85;77.31
18361;SHT31;9308;48.550;9.108;2023-05-10T06:36:11;15.80;77.09
18361;SHT31;9308;48.550;9.108;2023-05-10T06:38:37;16.06;76.62
18361;SHT31;9308;48.550;9.108;2023-05-10T06:41:02;16.00;76.19
18361;SHT31;9308;48.550;9.108;2023-05-10T06:43:28;16.17;76.34
18361;SHT31;9308;48.550;9.108;2023-05-10T06:45:54;16.27;77.22
18361;SHT31;9308;48.550;9.108;2023-05-10T06:48:19;16.13;76.87
18361;SHT31;9308;48.550;9.108;2023-05-10T06:50:44;16.03;75.57
18361;SHT31;9308;48.550;9.108;2023-05-10T06:53:10;16.18;76.39
18361;SHT31;9308;48.550;9.108;2023-05-10T06:55:37;16.06;76.55
18361;SHT31;9308;48.550;9.108;2023-05-10T06:58:02;16.07;76.49
18361;SHT31;9308;48.550;9.108;2023-05-10T07:00:28;16.05;75.27
18361;SHT31;9308;48.550;9.108;2023-05-10T07:02:53;16.24;75.00
18361;SHT31;9308;48.550;9.108;2023-05-10T07:05:20;16.20;75.77
18361;SHT31;9308;48.550;9.108;2023-05-10T07:07:45;16.27;74.97
18361;SHT31;9308;48.550;9.108;2023-05-10T07:10:11;16.20;75.92
18361;SHT31;9308;48.550;9.108;2023-05-10T07:12:36;15.94;74.86
18361;SHT31;9308;48.550;9.108;2023-05-10T07:15:02;15.91;76.74
18361;SHT31;9308;48.550;9.108;2023-05-10T07:17:28;16.09;75.48
18361;SHT31;9308;48.550;9.108;2023-05-10T07:19:53;15.97;75.95
18361;SHT31;9308;48.550;9.108;2023-05-10T07:22:18;16.07;75.62
18361;SHT31;9308;48.550;9.108;2023-05-10T07:24:44;15.99;75.39
18361;SHT31;9308;48.550;9.108;2023-05-10T07:27:10;15.94;75.33
18361;SHT31;9308;48.550;9.108;2023-05-10T07:29:36;16.14;75.22
18361;SHT31;9308;48.550;9.108;2023-05-10T07:32:02;16.12;74.97
18361;SHT31;9308;48.550;9.108;2023-05-10T07:34:28;15.82;74.69
18361;SHT31;9308;48.550;9.108;2023-05-10T07:36:57;16.21;74.23
18361;SHT31;9308;48.550;9.108;2023-05-10T07:39:23;16.13;75.89
18361;SHT31;9308;48.550;9.108;2023-05-10T07:41:48;16.31;74.74
18361;SHT31;9308;48.550;9.108;2023-05-10T07:44:14;16.47;75.10
18361;SHT31;9308;48.550;9.108;2023-05-10T07:46:39;16.66;74.85
18361;SHT31;9308;48.550;9.108;2023-05-10T07:49:05;16.35;73.87
18361;SHT31;9308;48.550;9.108;2023-05-10T07:51:31;16.68;74.41
18361;SHT31;9308;48.550;9.108;2023-05-10T07:53:56;16.68;73.98
18361;SHT31;9308;48.550;9.108;2023-05-10T07:56:27;16.75;74.66
18361;SHT31;9308;48.550;9.108;2023-05-10T07:59:02;16.71;74.06
18361;SHT31;9308;48.550;9.108;2023-05-10T08:01:33;16.88;73.21
18361;SHT31;9308;48.550;9.108;2023-05-10T08:03:59;16.85;73.65
18361;SHT31;9308;48.550;9.108;2023-05-10T08:06:25;16.82;73.65
18361;SHT31;9308;48.550;9.108;2023-05-10T08:08:53;16.79;72.53
18361;SHT31;9308;48.550;9.108;2023-05-10T08:11:20;16.96;72.55
18361;SHT31;9308;48.550;9.108;2023-05-10T08:13:46;17.28;73.36
18361;SHT31;9308;48.550;9.108;2023-05-10T08:16:12;16.76;71.16
18361;SHT31;9308;48.550;9.108;2023-05-10T08:18:38;17.10;71.77
18361;SHT31;9308;48.550;9.108;2023-05-10T08:21:04;17.26;72.62
18361;SHT31;9308;48.550;9.108;2023-05-10T08:23:30;17.30;71.65
18361;SHT31;9308;48.550;9.108;2023-05-10T08:25:55;17.19;70.64
18361;SHT31;9308;48.550;9.108;2023-05-10T08:28:21;17.21;70.53
18361;SHT31;9308;48.550;9.108;2023-05-10T08:30:46;17.62;70.17
18361;SHT31;9308;48.550;9.108;2023-05-10T08:33:11;17.49;68.91
18361;SHT31;9308;48.550;9.108;2023-05-10T08:35:37;17.81;70.74
18361;SHT31;9308;48.550;9.108;2023-05-10T08:38:02;17.85;68.97
18361;SHT31;9308;48.550;9.108;2023-05-10T08:40:28;18.07;68.92
18361;SHT31;9308;48.550;9.108;2023-05-10T08:43:04;18.27;69.18
18361;SHT31;9308;48.550;9.108;2023-05-10T08:45:33;18.20;68.92
18361;SHT31;9308;48.550;9.108;2023-05-10T08:48:02;17.87;67.97
18361;SHT31;9308;48.550;9.108;2023-05-10T08:50:29;18.05;67.50
18361;SHT31;9308;48.550;9.108;2023-05-10T08:52:57;17.95;68.16
18361;SHT31;9308;48.550;9.108;2023-05-10T08:55:24;17.24;68.47
18361;SHT31;9308;48.550;9.108;2023-05-10T08:57:50;17.19;69.25
18361;SHT31;9308;48.550;9.108;2023-05-10T09:00:16;17.47;69.76
18361;SHT31;9308;48.550;9.108;2023-05-10T09:02:43;17.40;68.51
18361;SHT31;9308;48.550;9.108;2023-05-10T09:05:11;17.67;69.77
18361;SHT31;9308;48.550;9.108;2023-05-10T09:07:37;17.72;66.54
18361;SHT31;9308;48.550;9.108;2023-05-10T09:10:04;17.86;67.33
18361;SHT31;9308;48.550;9.108;2023-05-10T09:12:30;17.45;66.94
18361;SHT31;9308;48.550;9.108;2023-05-10T09:14:55;17.38;67.82
18361;SHT31;9308;48.550;9.108;2023-05-10T09:17:23;17.78;66.29
18361;SHT31;9308;48.550;9.108;2023-05-10T09:19:49;18.28;65.06
18361;SHT31;9308;48.550;9.108;2023-05-10T09:22:14;18.21;64.12
18361;SHT31;9308;48.550;9.108;2023-05-10T09:24:42;18.16;63.74
18361;SHT31;9308;48.550;9.108;2023-05-10T09:27:10;17.64;66.51
18361;SHT31;9308;48.550;9.108;2023-05-10T09:29:40;18.02;64.52
18361;SHT31;9308;48.550;9.108;2023-05-10T09:32:05;18.38;63.21
18361;SHT31;9308;48.550;9.108;2023-05-10T09:34:32;18.76;63.19
18361;SHT31;9308;48.550;9.108;2023-05-10T09:37:02;18.85;63.85
18361;SHT31;9308;48.550;9.108;2023-05-10T09:39:36;18.28;62.46
18361;SHT31;9308;48.550;9.108;2023-05-10T09:42:04;18.99;61.83
18361;SHT31;9308;48.550;9.108;2023-05-10T09:44:31;19.00;60.44
18361;SHT31;9308;48.550;9.108;2023-05-10T09:46:58;19.00;57.85
18361;SHT31;9308;48.550;9.108;2023-05-10T09:49:24;19.58;59.07
18361;SHT31;9308;48.550;9.108;2023-05-10T09:52:06;19.83;58.69
18361;SHT31;9308;48.550;9.108;2023-05-10T09:54:32;19.79;57.95
18361;SHT31;9308;48.550;9.108;2023-05-10T09:56:58;19.64;59.27
18361;SHT31;9308;48.550;9.108;2023-05-10T09:59:25;19.58;59.14
18361;SHT31;9308;48.550;9.108;2023-05-10T10:01:54;19.82;59.61
18361;SHT31;9308;48.550;9.108;2023-05-10T10:04:20;19.51;57.42
18361;SHT31;9308;48.550;9.108;2023-05-10T10:06:46;19.74;58.51
18361;SHT31;9308;48.550;9.108;2023-05-10T10:09:12;19.58;56.04
18361;SHT31;9308;48.550;9.108;2023-05-10T10:11:38;20.14;56.29
18361;SHT31;9308;48.550;9.108;2023-05-10T10:14:05;19.55;58.22
18361;SHT31;9308;48.550;9.108;2023-05-10T10:16:31;19.47;60.31
18361;SHT31;9308;48.550;9.108;2023-05-10T10:18:57;19.03;61.37
18361;SHT31;9308;48.550;9.108;2023-05-10T10:21:23;19.07;62.00
18361;SHT31;9308;48.550;9.108;2023-05-10T10:23:49;18.69;63.02
18361;SHT31;9308;48.550;9.108;2023-05-10T10:26:17;18.76;62.21
18361;SHT31;9308;48.550;9.108;2023-05-10T10:29:08;19.19;62.00
18361;SHT31;9308;48.550;9.108;2023-05-10T10:31:58;18.76;62.39
18361;SHT31;9308;48.550;9.108;2023-05-10T10:34:29;19.23;62.17
18361;SHT31;9308;48.550;9.108;2023-05-10T10:36:56;19.59;60.18
18361;SHT31;9308;48.550;9.108;2023-05-10T10:39:22;19.68;59.59
18361;SHT31;9308;48.550;9.108;2023-05-10T10:41:55;19.61;61.52
18361;SHT31;9308;48.550;9.108;2023-05-10T10:44:26;19.34;60.89
18361;SHT31;9308;48.550;9.108;2023-05-10T10:47:02;19.23;60.75
18361;SHT31;9308;48.550;9.108;2023-05-10T10:49:30;19.13;61.24
18361;SHT31;9308;48.550;9.108;2023-05-10T10:54:52;18.62;63.37
18361;SHT31;9308;48.550;9.108;2023-05-10T10:57:19;17.76;67.88
18361;SHT31;9308;48.550;9.108;2023-05-10T10:59:44;16.96;68.00
18361;SHT31;9308;48.550;9.108;2023-05-10T11:02:49;16.62;69.42
18361;SHT31;9308;48.550;9.108;2023-05-10T11:05:39;16.07;68.87
18361;SHT31;9308;48.550;9.108;2023-05-10T11:08:25;15.76;68.70
18361;SHT31;9308;48.550;9.108;2023-05-10T11:11:02;15.45;70.02
18361;SHT31;9308;48.550;9.108;2023-05-10T11:13:38;15.48;70.30
18361;SHT31;9308;48.550;9.108;2023-05-10T11:16:11;15.66;70.05
18361;SHT31;9308;48.550;9.108;2023-05-10T11:18:37;15.72;70.50
18361;SHT31;9308;48.550;9.108;2023-05-10T11:21:03;15.55;69.71
18361;SHT31;9308;48.550;9.108;2023-05-10T11:23:51;15.35;70.40
18361;SHT31;9308;48.550;9.108;2023-05-10T11:26:17;15.54;70.30
18361;SHT31;9308;48.550;9.108;2023-05-10T11:28:47;15.54;69.17
18361;SHT31;9308;48.550;9.108;2023-05-10T11:31:17;15.72;70.00
18361;SHT31;9308;48.550;9.108;2023-05-10T11:33:50;15.89;69.78
18361;SHT31;9308;48.550;9.108;2023-05-10T11:36:17;15.55;68.40
18361;SHT31;9308;48.550;9.108;2023-05-10T11:38:43;15.99;68.73
18361;SHT31;9308;48.550;9.108;2023-05-10T11:41:10;16.65;67.88
18361;SHT31;9308;48.550;9.108;2023-05-10T11:43:37;16.88;67.80
18361;SHT31;9308;48.550;9.108;2023-05-10T11:46:07;16.55;66.57
18361;SHT31;9308;48.550;9.108;2023-05-10T11:48:33;16.64;66.25
18361;SHT31;9308;48.550;9.108;2023-05-10T11:50:58;16.85;64.33
18361;SHT31;9308;48.550;9.108;2023-05-10T11:53:27;17.04;65.58
18361;SHT31;9308;48.550;9.108;2023-05-10T11:55:52;16.40;66.45
18361;SHT31;9308;48.550;9.108;2023-05-10T11:58:18;16.40;68.00
18361;SHT31;9308;48.550;9.108;2023-05-10T12:00:44;16.33;66.95
18361;SHT31;9308;48.550;9.108;2023-05-10T12:03:11;16.23;66.53
18361;SHT31;9308;48.550;9.108;2023-05-10T12:05:36;16.38;65.74
18361;SHT31;9308;48.550;9.108;2023-05-10T12:08:13;17.03;66.03
18361;SHT31;9308;48.550;9.108;2023-05-10T12:10:38;17.47;64.11
18361;SHT31;9308;48.550;9.108;2023-05-10T12:13:04;17.82;63.50
18361;SHT31;9308;48.550;9.108;2023-05-10T12:15:29;18.00;63.18
18361;SHT31;9308;48.550;9.108;2023-05-10T12:17:56;18.35;62.36
18361;SHT31;9308;48.550;9.108;2023-05-10T12:20:23;18.47;63.01
18361;SHT31;9308;48.550;9.108;2023-05-10T12:22:54;18.45;61.18
18361;SHT31;9308;48.550;9.108;2023-05-10T12:25:21;17.85;60.60
18361;SHT31;9308;48.550;9.108;2023-05-10T12:27:57;18.57;61.69
18361;SHT31;9308;48.550;9.108;2023-05-10T12:30:24;19.09;60.05
18361;SHT31;9308;48.550;9.108;2023-05-10T12:32:50;19.10;60.13
18361;SHT31;9308;48.550;9.108;2023-05-10T12:35:16;19.02;59.27
18361;SHT31;9308;48.550;9.108;2023-05-10T12:37:44;18.41;59.28
18361;SHT31;9308;48.550;9.108;2023-05-10T12:40:11;18.06;61.18
18361;SHT31;9308;48.550;9.108;2023-05-10T12:42:37;18.13;60.46
18361;SHT31;9308;48.550;9.108;2023-05-10T12:45:04;17.96;59.90
18361;SHT31;9308;48.550;9.108;2023-05-10T12:47:31;17.96;58.94
18361;SHT31;9308;48.550;9.108;2023-05-10T12:49:57;18.10;57.89
18361;SHT31;9308;48.550;9.108;2023-05-10T12:52:22;18.57;58.93
18361;SHT31;9308;48.550;9.108;2023-05-10T12:54:48;18.37;59.45
18361;SHT31;9308;48.550;9.108;2023-05-10T12:57:14;19.11;58.79
18361;SHT31;9308;48.550;9.108;2023-05-10T12:59:39;18.86;58.12
18361;SHT31;9308;48.550;9.108;2023-05-10T13:02:06;18.98;54.72
18361;SHT31;9308;48.550;9.108;2023-05-10T13:04:31;18.75;57.23
18361;SHT31;9308;48.550;9.108;2023-05-10T13:06:57;18.78;56.75
18361;SHT31;9308;48.550;9.108;2023-05-10T13:09:27;18.30;58.05
18361;SHT31;9308;48.550;9.108;2023-05-10T13:11:54;18.67;57.10
18361;SHT31;9308;48.550;9.108;2023-05-10T13:14:20;18.58;57.39
18361;SHT31;9308;48.550;9.108;2023-05-10T13:16:46;18.54;56.72
18361;SHT31;9308;48.550;9.108;2023-05-10T13:19:13;18.62;59.52
18361;SHT31;9308;48.550;9.108;2023-05-10T13:21:38;18.54;57.10
18361;SHT31;9308;48.550;9.108;2023-05-10T13:24:06;18.73;56.09
18361;SHT31;9308;48.550;9.108;2023-05-10T13:26:32;19.24;56.92
18361;SHT31;9308;48.550;9.108;2023-05-10T13:28:58;19.17;55.41
18361;SHT31;9308;48.550;9.108;2023-05-10T13:31:23;18.88;55.45
18361;SHT31;9308;48.550;9.108;2023-05-10T13:33:48;18.83;54.71
18361;SHT31;9308;48.550;9.108;2023-05-10T13:36:14;19.03;55.20
18361;SHT31;9308;48.550;9.108;2023-05-10T13:38:39;18.89;53.86
18361;SHT31;9308;48.550;9.108;2023-05-10T13:41:05;19.61;53.65
18361;SHT31;9308;48.550;9.108;2023-05-10T13:43:30;19.38;53.00
18361;SHT31;9308;48.550;9.108;2023-05-10T13:45:56;19.72;53.61
18361;SHT31;9308;48.550;9.108;2023-05-10T13:48:21;19.65;53.65
18361;SHT31;9308;48.550;9.108;2023-05-10T13:50:46;19.54;54.33
18361;SHT31;9308;48.550;9.108;2023-05-10T13:53:12;18.69;53.69
18361;SHT31;9308;48.550;9.108;2023-05-10T13:55:38;18.88;54.99
18361;SHT31;9308;48.550;9.108;2023-05-10T13:58:03;18.68;57.43
18361;SHT31;9308;48.550;9.108;2023-05-10T14:00:29;18.76;54.84
18361;SHT31;9308;48.550;9.108;2023-05-10T14:02:54;18.68;54.93
18361;SHT31;9308;48.550;9.108;2023-05-10T14:05:20;19.23;54.57
18361;SHT31;9308;48.550;9.108;2023-05-10T14:07:45;19.36;54.66
18361;SHT31;9308;48.550;9.108;2023-05-10T14:10:11;19.30;55.64
18361;SHT31;9308;48.550;9.108;2023-05-10T14:12:36;19.53;55.02
18361;SHT31;9308;48.550;9.108;2023-05-10T14:15:03;19.06;55.00
18361;SHT31;9308;48.550;9.108;2023-05-10T14:17:31;18.58;54.71
18361;SHT31;9308;48.550;9.108;2023-05-10T14:19:56;18.82;54.65
18361;SHT31;9308;48.550;9.108;2023-05-10T14:22:22;18.78;54.82
18361;SHT31;9308;48.550;9.108;2023-05-10T14:24:48;18.99;55.32
18361;SHT31;9308;48.550;9.108;2023-05-10T14:27:13;19.13;55.42
18361;SHT31;9308;48.550;9.108;2023-05-10T14:29:39;19.19;55.18
18361;SHT31;9308;48.550;9.108;2023-05-10T14:32:04;19.48;55.16
18361;SHT31;9308;48.550;9.108;2023-05-10T14:34:30;19.16;55.08
18361;SHT31;9308;48.550;9.108;2023-05-10T14:36:55;19.48;55.76
18361;SHT31;9308;48.550;9.108;2023-05-10T14:39:21;19.54;52.90
18361;SHT31;9308;48.550;9.108;2023-05-10T14:41:48;19.74;55.38
18361;SHT31;9308;48.550;9.108;2023-05-10T14:44:13;18.72;54.76
18361;SHT31;9308;48.550;9.108;2023-05-10T14:46:40;19.41;55.11
18361;SHT31;9308;48.550;9.108;2023-05-10T14:49:07;19.51;54.92
18361;SHT31;9308;48.550;9.108;2023-05-10T14:51:32;19.23;53.32
18361;SHT31;9308;48.550;9.108;2023-05-10T14:53:57;19.50;53.47
18361;SHT31;9308;48.550;9.108;2023-05-10T14:56:23;19.41;55.03
18361;SHT31;9308;48.550;9.108;2023-05-10T14:58:49;19.50;55.69
18361;SHT31;9308;48.550;9.108;2023-05-10T15:01:15;19.30;53.65
18361;SHT31;9308;48.550;9.108;2023-05-10T15:03:40;19.53;55.61
18361;SHT31;9308;48.550;9.108;2023-05-10T15:06:08;19.28;55.97
18361;SHT31;9308;48.550;9.108;2023-05-10T15:08:33;19.45;55.70
18361;SHT31;9308;48.550;9.108;2023-05-10T15:10:59;19.38;53.35
18361;SHT31;9308;48.550;9.108;2023-05-10T15:13:24;19.38;55.87
18361;SHT31;9308;48.550;9.108;2023-05-10T15:15:50;19.26;57.39
18361;SHT31;9308;48.550;9.108;2023-05-10T15:18:15;19.27;53.50
18361;SHT31;9308;48.550;9.108;2023-05-10T15:20:41;19.48;54.30
18361;SHT31;9308;48.550;9.108;2023-05-10T15:23:06;19.44;54.02
18361;SHT31;9308;48.550;9.108;2023-05-10T15:25:32;19.16;55.75
18361;SHT31;9308;48.550;9.108;2023-05-10T15:28:01;19.10;55.05
18361;SHT31;9308;48.550;9.108;2023-05-10T15:30:27;19.51;54.19
18361;SHT31;9308;48.550;9.108;2023-05-10T15:32:52;19.44;55.38
18361;SHT31;9308;48.550;9.108;2023-05-10T15:35:18;19.66;55.09
18361;SHT31;9308;48.550;9.108;2023-05-10T15:37:44;19.30;55.10
18361;SHT31;9308;48.550;9.108;2023-05-10T15:40:09;19.24;55.64
18361;SHT31;9308;48.550;9.108;2023-05-10T15:42:35;19.54;53.84
18361;SHT31;9308;48.550;9.108;2023-05-10T15:45:00;19.96;52.61
18361;SHT31;9308;48.550;9.108;2023-05-10T15:47:26;19.96;54.53
18361;SHT31;9308;48.550;9.108;2023-05-10T15:49:53;19.23;51.57
18361;SHT31;9308;48.550;9.108;2023-05-10T15:52:18;19.26;53.12
18361;SHT31;9308;48.550;9.108;2023-05-10T15:54:45;19.07;53.91